Time;durP1;ratioP1;P1;durP2;ratioP2;P2;SDS_P1;SDS_P2;PMS_P1;PMS_P2;Temp;Humidity;BMP_temperature;BMP_pressure;BME280_temperature;BME280_humidity;BME280_pressure;Samples;Min_cycle;Max_cycle;Signal;HPM_P1;HPM_P2
2022/08/09 00:00:06;;;;;;;0.3;0.3;;;;;;;19.4;100.0;102440;;;;
2022/08/09 00:01:01;;;;;;;0.3;0.3;;;;;;;19.3;100.0;102440;;;;
2022/08/09 00:02:00;;;;;;;0.3;0.3;;;;;;;19.3;100.0;102440;;;;
2022/08/09 00:03:00;;;;;;;0.3;0.3;;;;;;;19.2;100.0;102430;;;;
2022/08/09 00:04:10;;;;;;;0.3;0.3;;;;;;;19.2;100.0;102430;;;;
2022/08/09 00:05:10;;;;;;;0.3;0.3;;;;;;;19.3;100.0;102440;;;;
2022/08/09 00:06:10;;;;;;;0.3;0.3;;;;;;;19.3;100.0;102440;;;;
2022/08/09 00:07:02;;;;;;;0.3;0.3;;;;;;;19.0;100.0;102430;;;;
2022/08/09 00:08:01;;;;;;;0.3;0.3;;;;;;;19.0;100.0;102430;;;;
2022/08/09 00:09:00;;;;;;;0.3;0.3;;;;;;;19.0;100.0;102430;;;;
2022/08/09 00:10:00;;;;;;;0.3;0.3;;;;;;;19.0;100.0;102430;;;;
2022/08/09 00:11:00;;;;;;;0.3;0.3;;;;;;;19.1;100.0;102430;;;;
2022/08/09 00:12:04;;;;;;;0.3;0.3;;;;;;;19.1;100.0;102430;;;;
2022/08/09 00:13:00;;;;;;;0.3;0.3;;;;;;;19.0;100.0;102430;;;;
2022/08/09 00:14:00;;;;;;;0.3;0.3;;;;;;;19.0;100.0;102430;;;;
2022/08/09 00:15:06;;;;;;;0.3;0.3;;;;;;;19.0;100.0;102430;;;;
2022/08/09 00:16:03;;;;;;;0.3;0.3;;;;;;;19.0;100.0;102430;;;;
2022/08/09 00:17:00;;;;;;;0.3;0.3;;;;;;;19.0;100.0;102430;;;;
2022/08/09 00:18:10;;;;;;;0.3;0.3;;;;;;;19.0;100.0;102430;;;;
2022/08/09 00:19:03;;;;;;;0.2;0.2;;;;;;;19.1;100.0;102430;;;;
2022/08/09 00:20:00;;;;;;;0.2;0.2;;;;;;;19.1;100.0;102430;;;;
2022/08/09 00:21:03;;;;;;;0.2;0.2;;;;;;;19.1;100.0;102430;;;;
2022/08/09 00:22:03;;;;;;;0.2;0.2;;;;;;;19.1;100.0;102430;;;;
2022/08/09 00:23:10;;;;;;;0.2;0.2;;;;;;;19.0;100.0;102430;;;;
2022/08/09 00:24:00;;;;;;;0.2;0.2;;;;;;;19.0;100.0;102430;;;;
2022/08/09 00:25:04;;;;;;;0.2;0.2;;;;;;;18.9;100.0;102420;;;;
2022/08/09 00:26:05;;;;;;;0.2;0.2;;;;;;;18.9;100.0;102420;;;;
2022/08/09 00:27:00;;;;;;;0.2;0.2;;;;;;;18.8;100.0;102420;;;;
2022/08/09 00:28:00;;;;;;;0.2;0.2;;;;;;;18.8;100.0;102420;;;;
2022/08/09 00:29:01;;;;;;;0.2;0.2;;;;;;;19.0;100.0;102430;;;;
2022/08/09 00:30:10;;;;;;;0.2;0.2;;;;;;;19.0;100.0;102430;;;;
2022/08/09 00:31:01;;;;;;;0.2;0.2;;;;;;;18.9;100.0;102420;;;;
2022/08/09 00:32:02;;;;;;;0.2;0.2;;;;;;;18.9;100.0;102420;;;;
2022/08/09 00:33:01;;;;;;;0.2;0.2;;;;;;;18.8;100.0;102420;;;;
2022/08/09 00:34:02;;;;;;;0.2;0.2;;;;;;;18.8;100.0;102420;;;;
2022/08/09 00:35:00;;;;;;;0.2;0.2;;;;;;;18.6;100.0;102420;;;;
2022/08/09 00:36:01;;;;;;;0.2;0.2;;;;;;;18.6;100.0;102420;;;;
2022/08/09 00:37:00;;;;;;;0.2;0.2;;;;;;;18.6;100.0;102420;;;;
2022/08/09 00:38:04;;;;;;;0.2;0.2;;;;;;;18.6;100.0;102420;;;;
2022/08/09 00:39:00;;;;;;;0.5;0.5;;;;;;;18.7;100.0;102420;;;;
2022/08/09 00:40:10;;;;;;;0.5;0.5;;;;;;;18.7;100.0;102420;;;;
2022/08/09 00:41:01;;;;;;;0.5;0.5;;;;;;;18.8;100.0;102420;;;;
2022/08/09 00:42:10;;;;;;;0.5;0.5;;;;;;;18.8;100.0;102420;;;;
2022/08/09 00:43:10;;;;;;;0.5;0.5;;;;;;;18.8;100.0;102420;;;;
2022/08/09 00:44:10;;;;;;;0.5;0.5;;;;;;;18.8;100.0;102420;;;;
2022/08/09 00:45:04;;;;;;;0.5;0.5;;;;;;;18.6;100.0;102420;;;;
2022/08/09 00:46:00;;;;;;;0.5;0.5;;;;;;;18.6;100.0;102420;;;;
2022/08/09 00:47:05;;;;;;;0.5;0.5;;;;;;;18.5;100.0;102420;;;;
2022/08/09 00:48:00;;;;;;;0.5;0.5;;;;;;;18.5;100.0;102420;;;;
2022/08/09 00:49:01;;;;;;;0.5;0.5;;;;;;;18.4;100.0;102430;;;;
2022/08/09 00:50:01;;;;;;;0.5;0.5;;;;;;;18.4;100.0;102430;;;;
2022/08/09 00:51:11;;;;;;;0.5;0.5;;;;;;;18.5;100.0;102420;;;;
2022/08/09 00:52:05;;;;;;;0.5;0.5;;;;;;;18.5;100.0;102420;;;;
2022/08/09 00:53:09;;;;;;;0.5;0.5;;;;;;;18.4;100.0;102430;;;;
2022/08/09 00:54:00;;;;;;;0.5;0.5;;;;;;;18.4;100.0;102430;;;;
2022/08/09 00:55:01;;;;;;;0.5;0.5;;;;;;;18.3;100.0;102430;;;;
2022/08/09 00:56:10;;;;;;;0.5;0.5;;;;;;;18.3;100.0;102430;;;;
2022/08/09 00:57:01;;;;;;;0.5;0.5;;;;;;;18.2;100.0;102430;;;;
2022/08/09 00:58:00;;;;;;;0.5;0.5;;;;;;;18.2;100.0;102430;;;;
2022/08/09 00:59:01;;;;;;;0.3;0.3;;;;;;;18.4;100.0;102430;;;;
2022/08/09 01:00:02;;;;;;;0.3;0.3;;;;;;;18.4;100.0;102430;;;;
2022/08/09 01:01:03;;;;;;;0.3;0.3;;;;;;;18.2;100.0;102430;;;;
2022/08/09 01:02:00;;;;;;;0.3;0.3;;;;;;;18.2;100.0;102430;;;;
2022/08/09 01:03:10;;;;;;;0.3;0.3;;;;;;;18.3;100.0;102430;;;;
2022/08/09 01:04:11;;;;;;;0.3;0.3;;;;;;;18.3;100.0;102430;;;;
2022/08/09 01:05:04;;;;;;;0.3;0.3;;;;;;;18.3;100.0;102430;;;;
2022/08/09 01:06:18;;;;;;;0.3;0.3;;;;;;;18.3;100.0;102430;;;;
2022/08/09 01:07:13;;;;;;;0.3;0.3;;;;;;;18.1;100.0;102430;;;;
2022/08/09 01:08:11;;;;;;;0.3;0.3;;;;;;;18.1;100.0;102430;;;;
2022/08/09 01:09:09;;;;;;;0.3;0.3;;;;;;;18.0;100.0;102430;;;;
2022/08/09 01:10:04;;;;;;;0.3;0.3;;;;;;;18.0;100.0;102430;;;;
2022/08/09 01:11:15;;;;;;;0.3;0.3;;;;;;;18.2;100.0;102430;;;;
2022/08/09 01:12:08;;;;;;;0.3;0.3;;;;;;;18.2;100.0;102430;;;;
2022/08/09 01:13:03;;;;;;;0.3;0.3;;;;;;;18.2;100.0;102440;;;;
2022/08/09 01:14:02;;;;;;;0.3;0.3;;;;;;;18.2;100.0;102440;;;;
2022/08/09 01:15:12;;;;;;;0.3;0.3;;;;;;;18.2;100.0;102440;;;;
2022/08/09 01:16:04;;;;;;;0.3;0.3;;;;;;;18.2;100.0;102440;;;;
2022/08/09 01:17:11;;;;;;;0.3;0.3;;;;;;;18.1;100.0;102430;;;;
2022/08/09 01:18:02;;;;;;;0.3;0.3;;;;;;;18.1;100.0;102430;;;;
2022/08/09 01:19:17;;;;;;;0.2;0.2;;;;;;;18.2;100.0;102440;;;;
2022/08/09 01:20:03;;;;;;;0.2;0.2;;;;;;;18.2;100.0;102440;;;;
2022/08/09 01:21:10;;;;;;;0.2;0.2;;;;;;;18.2;100.0;102440;;;;
2022/08/09 01:22:16;;;;;;;0.2;0.2;;;;;;;18.2;100.0;102440;;;;
2022/08/09 01:23:00;;;;;;;0.2;0.2;;;;;;;18.1;100.0;102430;;;;
2022/08/09 01:24:10;;;;;;;0.2;0.2;;;;;;;18.1;100.0;102430;;;;
2022/08/09 01:25:12;;;;;;;0.2;0.2;;;;;;;18.0;100.0;102430;;;;
2022/08/09 01:26:07;;;;;;;0.2;0.2;;;;;;;18.0;100.0;102430;;;;
2022/08/09 01:27:08;;;;;;;0.2;0.2;;;;;;;17.9;100.0;102430;;;;
2022/08/09 01:28:01;;;;;;;0.2;0.2;;;;;;;17.9;100.0;102430;;;;
2022/08/09 01:29:00;;;;;;;0.2;0.2;;;;;;;17.9;100.0;102430;;;;
2022/08/09 01:30:04;;;;;;;0.2;0.2;;;;;;;17.9;100.0;102430;;;;
2022/08/09 01:31:06;;;;;;;0.2;0.2;;;;;;;18.0;100.0;102430;;;;
2022/08/09 01:32:12;;;;;;;0.2;0.2;;;;;;;18.0;100.0;102430;;;;
2022/08/09 01:33:01;;;;;;;0.2;0.2;;;;;;;18.0;100.0;102430;;;;
2022/08/09 01:34:03;;;;;;;0.2;0.2;;;;;;;18.0;100.0;102430;;;;
2022/08/09 01:35:11;;;;;;;0.2;0.2;;;;;;;17.9;100.0;102430;;;;
2022/08/09 01:36:05;;;;;;;0.2;0.2;;;;;;;17.9;100.0;102430;;;;
2022/08/09 01:37:02;;;;;;;0.2;0.2;;;;;;;17.8;100.0;102430;;;;
2022/08/09 01:38:10;;;;;;;0.3;0.3;;;;;;;17.8;100.0;102430;;;;
2022/08/09 01:39:01;;;;;;;0.3;0.3;;;;;;;18.1;100.0;102430;;;;
2022/08/09 01:40:03;;;;;;;0.3;0.3;;;;;;;18.1;100.0;102430;;;;
2022/08/09 01:41:06;;;;;;;0.3;0.3;;;;;;;17.9;100.0;102430;;;;
2022/08/09 01:42:11;;;;;;;0.3;0.3;;;;;;;17.9;100.0;102430;;;;
2022/08/09 01:43:00;;;;;;;0.3;0.3;;;;;;;17.9;100.0;102430;;;;
2022/08/09 01:44:01;;;;;;;0.3;0.3;;;;;;;17.9;100.0;102430;;;;
2022/08/09 01:45:01;;;;;;;0.3;0.3;;;;;;;18.0;100.0;102420;;;;
2022/08/09 01:46:00;;;;;;;0.3;0.3;;;;;;;18.0;100.0;102420;;;;
2022/08/09 01:47:01;;;;;;;0.3;0.3;;;;;;;18.0;100.0;102420;;;;
2022/08/09 01:48:06;;;;;;;0.3;0.3;;;;;;;18.0;100.0;102420;;;;
2022/08/09 01:49:10;;;;;;;0.3;0.3;;;;;;;17.9;100.0;102420;;;;
2022/08/09 01:50:06;;;;;;;0.3;0.3;;;;;;;17.9;100.0;102420;;;;
2022/08/09 01:51:03;;;;;;;0.3;0.3;;;;;;;17.9;100.0;102420;;;;
2022/08/09 01:52:07;;;;;;;0.3;0.3;;;;;;;17.9;100.0;102420;;;;
2022/08/09 01:53:11;;;;;;;0.3;0.3;;;;;;;17.8;100.0;102420;;;;
2022/08/09 01:54:01;;;;;;;0.3;0.3;;;;;;;17.8;100.0;102420;;;;
2022/08/09 01:55:02;;;;;;;0.3;0.3;;;;;;;17.8;100.0;102430;;;;
2022/08/09 01:56:00;;;;;;;0.3;0.3;;;;;;;17.8;100.0;102430;;;;
2022/08/09 01:57:08;;;;;;;0.3;0.3;;;;;;;17.7;100.0;102430;;;;
2022/08/09 01:58:02;;;;;;;0.3;0.3;;;;;;;17.7;100.0;102430;;;;
2022/08/09 01:59:01;;;;;;;0.2;0.2;;;;;;;17.8;100.0;102420;;;;
2022/08/09 02:00:10;;;;;;;0.2;0.2;;;;;;;17.8;100.0;102420;;;;
2022/08/09 02:01:01;;;;;;;0.2;0.2;;;;;;;17.9;100.0;102430;;;;
2022/08/09 02:02:01;;;;;;;0.2;0.2;;;;;;;17.9;100.0;102430;;;;
2022/08/09 02:03:01;;;;;;;0.2;0.2;;;;;;;18.0;100.0;102430;;;;
2022/08/09 02:04:01;;;;;;;0.2;0.2;;;;;;;18.0;100.0;102430;;;;
2022/08/09 02:05:05;;;;;;;0.2;0.2;;;;;;;17.9;100.0;102430;;;;
2022/08/09 02:06:07;;;;;;;0.2;0.2;;;;;;;17.9;100.0;102430;;;;
2022/08/09 02:08:12;;;;;;;0.2;0.2;;;;;;;17.9;100.0;102430;;;;
2022/08/09 02:09:02;;;;;;;0.2;0.2;;;;;;;17.8;100.0;102440;;;;
2022/08/09 02:10:04;;;;;;;0.2;0.2;;;;;;;17.8;100.0;102440;;;;
2022/08/09 02:11:02;;;;;;;0.2;0.2;;;;;;;17.9;100.0;102440;;;;
2022/08/09 02:12:02;;;;;;;0.2;0.2;;;;;;;17.9;100.0;102440;;;;
2022/08/09 02:13:02;;;;;;;0.2;0.2;;;;;;;17.9;100.0;102440;;;;
2022/08/09 02:14:07;;;;;;;0.2;0.2;;;;;;;17.9;100.0;102440;;;;
2022/08/09 02:15:01;;;;;;;0.2;0.2;;;;;;;17.8;100.0;102440;;;;
2022/08/09 02:16:02;;;;;;;0.2;0.2;;;;;;;17.8;100.0;102440;;;;
2022/08/09 02:17:10;;;;;;;0.2;0.2;;;;;;;17.8;100.0;102440;;;;
2022/08/09 02:18:10;;;;;;;0.3;0.3;;;;;;;17.8;100.0;102440;;;;
2022/08/09 02:19:00;;;;;;;0.3;0.3;;;;;;;17.9;100.0;102430;;;;
2022/08/09 02:20:02;;;;;;;0.3;0.3;;;;;;;17.9;100.0;102430;;;;
2022/08/09 02:21:17;;;;;;;0.3;0.3;;;;;;;17.7;100.0;102440;;;;
2022/08/09 02:22:08;;;;;;;0.3;0.3;;;;;;;17.7;100.0;102440;;;;
2022/08/09 02:23:00;;;;;;;0.3;0.3;;;;;;;17.8;100.0;102440;;;;
2022/08/09 02:24:02;;;;;;;0.3;0.3;;;;;;;17.8;100.0;102440;;;;
2022/08/09 02:25:01;;;;;;;0.3;0.3;;;;;;;17.8;100.0;102440;;;;
2022/08/09 02:26:01;;;;;;;0.3;0.3;;;;;;;17.8;100.0;102440;;;;
2022/08/09 02:27:02;;;;;;;0.3;0.3;;;;;;;17.7;100.0;102440;;;;
2022/08/09 02:28:10;;;;;;;0.3;0.3;;;;;;;17.7;100.0;102440;;;;
2022/08/09 02:29:01;;;;;;;0.3;0.3;;;;;;;17.7;100.0;102440;;;;
2022/08/09 02:30:01;;;;;;;0.3;0.3;;;;;;;17.7;100.0;102440;;;;
2022/08/09 02:31:02;;;;;;;0.3;0.3;;;;;;;17.7;100.0;102440;;;;
2022/08/09 02:32:01;;;;;;;0.3;0.3;;;;;;;17.7;100.0;102440;;;;
2022/08/09 02:33:01;;;;;;;0.3;0.3;;;;;;;17.7;100.0;102440;;;;
2022/08/09 02:34:13;;;;;;;0.3;0.3;;;;;;;17.7;100.0;102440;;;;
2022/08/09 02:35:13;;;;;;;0.3;0.3;;;;;;;17.7;100.0;102430;;;;
2022/08/09 02:36:04;;;;;;;0.3;0.3;;;;;;;17.7;100.0;102430;;;;
2022/08/09 02:37:03;;;;;;;0.3;0.3;;;;;;;17.6;100.0;102430;;;;
2022/08/09 02:38:02;;;;;;;0.4;0.4;;;;;;;17.6;100.0;102430;;;;
2022/08/09 02:39:05;;;;;;;0.4;0.4;;;;;;;17.5;100.0;102430;;;;
2022/08/09 02:40:03;;;;;;;0.4;0.4;;;;;;;17.5;100.0;102430;;;;
2022/08/09 02:41:07;;;;;;;0.4;0.4;;;;;;;17.6;100.0;102440;;;;
2022/08/09 02:42:06;;;;;;;0.4;0.4;;;;;;;17.6;100.0;102440;;;;
2022/08/09 02:43:02;;;;;;;0.4;0.4;;;;;;;17.5;100.0;102440;;;;
2022/08/09 02:44:12;;;;;;;0.4;0.4;;;;;;;17.5;100.0;102440;;;;
2022/08/09 02:45:03;;;;;;;0.4;0.4;;;;;;;17.3;100.0;102430;;;;
2022/08/09 02:46:02;;;;;;;0.4;0.4;;;;;;;17.3;100.0;102430;;;;
2022/08/09 02:47:04;;;;;;;0.4;0.4;;;;;;;17.4;100.0;102430;;;;
2022/08/09 02:48:04;;;;;;;0.4;0.4;;;;;;;17.4;100.0;102430;;;;
2022/08/09 02:49:04;;;;;;;0.4;0.4;;;;;;;17.5;100.0;102430;;;;
2022/08/09 02:50:10;;;;;;;0.4;0.4;;;;;;;17.5;100.0;102430;;;;
2022/08/09 02:51:02;;;;;;;0.4;0.4;;;;;;;17.4;100.0;102420;;;;
2022/08/09 02:52:03;;;;;;;0.4;0.4;;;;;;;17.4;100.0;102420;;;;
2022/08/09 02:53:03;;;;;;;0.4;0.4;;;;;;;17.3;100.0;102420;;;;
2022/08/09 02:54:02;;;;;;;0.4;0.4;;;;;;;17.3;100.0;102420;;;;
2022/08/09 02:55:10;;;;;;;0.4;0.4;;;;;;;17.2;100.0;102420;;;;
2022/08/09 02:56:01;;;;;;;0.4;0.4;;;;;;;17.2;100.0;102420;;;;
2022/08/09 02:57:11;;;;;;;0.4;0.4;;;;;;;17.2;100.0;102420;;;;
2022/08/09 02:58:11;;;;;;;0.3;0.3;;;;;;;17.2;100.0;102420;;;;
2022/08/09 02:59:02;;;;;;;0.3;0.3;;;;;;;17.3;100.0;102420;;;;
2022/08/09 03:00:10;;;;;;;0.3;0.3;;;;;;;17.3;100.0;102420;;;;
2022/08/09 03:01:06;;;;;;;0.3;0.3;;;;;;;17.2;100.0;102420;;;;
2022/08/09 03:02:06;;;;;;;0.3;0.3;;;;;;;17.2;100.0;102420;;;;
2022/08/09 03:03:01;;;;;;;0.3;0.3;;;;;;;17.2;100.0;102420;;;;
2022/08/09 03:04:11;;;;;;;0.3;0.3;;;;;;;17.2;100.0;102420;;;;
2022/08/09 03:05:01;;;;;;;0.3;0.3;;;;;;;17.0;100.0;102430;;;;
2022/08/09 03:06:01;;;;;;;0.3;0.3;;;;;;;17.0;100.0;102430;;;;
2022/08/09 03:07:10;;;;;;;0.3;0.3;;;;;;;17.2;100.0;102420;;;;
2022/08/09 03:08:02;;;;;;;0.3;0.3;;;;;;;17.2;100.0;102420;;;;
2022/08/09 03:09:00;;;;;;;0.3;0.3;;;;;;;17.2;100.0;102430;;;;
2022/08/09 03:10:01;;;;;;;0.3;0.3;;;;;;;17.2;100.0;102430;;;;
2022/08/09 03:11:00;;;;;;;0.3;0.3;;;;;;;17.2;100.0;102420;;;;
2022/08/09 03:12:11;;;;;;;0.3;0.3;;;;;;;17.2;100.0;102420;;;;
2022/08/09 03:13:01;;;;;;;0.3;0.3;;;;;;;17.0;100.0;102420;;;;
2022/08/09 03:14:01;;;;;;;0.3;0.3;;;;;;;17.0;100.0;102420;;;;
2022/08/09 03:15:01;;;;;;;0.3;0.3;;;;;;;17.1;100.0;102420;;;;
2022/08/09 03:16:07;;;;;;;0.3;0.3;;;;;;;17.1;100.0;102420;;;;
2022/08/09 03:17:02;;;;;;;0.3;0.3;;;;;;;17.0;100.0;102420;;;;
2022/08/09 03:18:09;;;;;;;0.3;0.3;;;;;;;17.0;100.0;102420;;;;
2022/08/09 03:19:02;;;;;;;0.3;0.3;;;;;;;17.1;100.0;102420;;;;
2022/08/09 03:20:10;;;;;;;0.3;0.3;;;;;;;17.1;100.0;102420;;;;
2022/08/09 03:21:01;;;;;;;0.3;0.3;;;;;;;17.0;100.0;102420;;;;
2022/08/09 03:22:03;;;;;;;0.3;0.3;;;;;;;17.0;100.0;102420;;;;
2022/08/09 03:23:10;;;;;;;0.3;0.3;;;;;;;17.0;100.0;102420;;;;
2022/08/09 03:24:05;;;;;;;0.3;0.3;;;;;;;17.0;100.0;102420;;;;
2022/08/09 03:25:10;;;;;;;0.3;0.3;;;;;;;16.9;100.0;102420;;;;
2022/08/09 03:26:04;;;;;;;0.3;0.3;;;;;;;16.9;100.0;102420;;;;
2022/08/09 03:27:07;;;;;;;0.3;0.3;;;;;;;16.9;100.0;102420;;;;
2022/08/09 03:28:02;;;;;;;0.3;0.3;;;;;;;16.9;100.0;102420;;;;
2022/08/09 03:29:00;;;;;;;0.3;0.3;;;;;;;16.9;100.0;102420;;;;
2022/08/09 03:30:01;;;;;;;0.3;0.3;;;;;;;16.9;100.0;102420;;;;
2022/08/09 03:31:11;;;;;;;0.3;0.3;;;;;;;16.8;100.0;102420;;;;
2022/08/09 03:32:01;;;;;;;0.3;0.3;;;;;;;16.8;100.0;102420;;;;
2022/08/09 03:33:11;;;;;;;0.3;0.3;;;;;;;16.9;100.0;102420;;;;
2022/08/09 03:34:02;;;;;;;0.3;0.3;;;;;;;16.9;100.0;102420;;;;
2022/08/09 03:35:00;;;;;;;0.3;0.3;;;;;;;16.9;100.0;102420;;;;
2022/08/09 03:36:10;;;;;;;0.3;0.3;;;;;;;16.9;100.0;102420;;;;
2022/08/09 03:37:10;;;;;;;0.3;0.3;;;;;;;16.7;100.0;102420;;;;
2022/08/09 03:38:00;;;;;;;0.4;0.4;;;;;;;16.7;100.0;102420;;;;
2022/08/09 03:39:00;;;;;;;0.4;0.4;;;;;;;16.8;100.0;102430;;;;
2022/08/09 03:40:00;;;;;;;0.4;0.4;;;;;;;16.8;100.0;102430;;;;
2022/08/09 03:41:00;;;;;;;0.4;0.4;;;;;;;16.9;100.0;102430;;;;
2022/08/09 03:42:07;;;;;;;0.4;0.4;;;;;;;16.9;100.0;102430;;;;
2022/08/09 03:43:00;;;;;;;0.4;0.4;;;;;;;16.9;100.0;102430;;;;
2022/08/09 03:44:08;;;;;;;0.4;0.4;;;;;;;16.9;100.0;102430;;;;
2022/08/09 03:45:00;;;;;;;0.4;0.4;;;;;;;17.0;100.0;102430;;;;
2022/08/09 03:46:10;;;;;;;0.4;0.4;;;;;;;17.0;100.0;102430;;;;
2022/08/09 03:47:00;;;;;;;0.4;0.4;;;;;;;16.9;100.0;102430;;;;
2022/08/09 03:48:00;;;;;;;0.4;0.4;;;;;;;16.9;100.0;102430;;;;
2022/08/09 03:49:03;;;;;;;0.4;0.4;;;;;;;16.8;100.0;102430;;;;
2022/08/09 03:50:03;;;;;;;0.4;0.4;;;;;;;16.8;100.0;102430;;;;
2022/08/09 03:51:01;;;;;;;0.4;0.4;;;;;;;16.8;100.0;102430;;;;
2022/08/09 03:52:04;;;;;;;0.4;0.4;;;;;;;16.8;100.0;102430;;;;
2022/08/09 03:53:03;;;;;;;0.4;0.4;;;;;;;16.8;100.0;102440;;;;
2022/08/09 03:54:02;;;;;;;0.4;0.4;;;;;;;16.8;100.0;102440;;;;
2022/08/09 03:55:07;;;;;;;0.4;0.4;;;;;;;16.7;100.0;102430;;;;
2022/08/09 03:56:00;;;;;;;0.4;0.4;;;;;;;16.7;100.0;102430;;;;
2022/08/09 03:57:05;;;;;;;0.4;0.4;;;;;;;16.6;100.0;102440;;;;
2022/08/09 03:58:10;;;;;;;0.3;0.3;;;;;;;16.6;100.0;102440;;;;
2022/08/09 03:59:00;;;;;;;0.3;0.3;;;;;;;16.8;100.0;102430;;;;
2022/08/09 04:00:01;;;;;;;0.3;0.3;;;;;;;16.8;100.0;102430;;;;
2022/08/09 04:01:01;;;;;;;0.3;0.3;;;;;;;16.7;100.0;102440;;;;
2022/08/09 04:02:00;;;;;;;0.3;0.3;;;;;;;16.7;100.0;102440;;;;
2022/08/09 04:03:00;;;;;;;0.3;0.3;;;;;;;16.9;100.0;102430;;;;
2022/08/09 04:04:09;;;;;;;0.3;0.3;;;;;;;16.9;100.0;102430;;;;
2022/08/09 04:05:06;;;;;;;0.3;0.3;;;;;;;16.8;100.0;102430;;;;
2022/08/09 04:06:04;;;;;;;0.3;0.3;;;;;;;16.8;100.0;102430;;;;
2022/08/09 04:07:00;;;;;;;0.3;0.3;;;;;;;16.8;100.0;102430;;;;
2022/08/09 04:08:00;;;;;;;0.3;0.3;;;;;;;16.8;100.0;102430;;;;
2022/08/09 04:09:05;;;;;;;0.3;0.3;;;;;;;16.6;100.0;102430;;;;
2022/08/09 04:10:00;;;;;;;0.3;0.3;;;;;;;16.6;100.0;102430;;;;
2022/08/09 04:11:01;;;;;;;0.3;0.3;;;;;;;16.5;100.0;102430;;;;
2022/08/09 04:12:06;;;;;;;0.3;0.3;;;;;;;16.5;100.0;102430;;;;
2022/08/09 04:13:08;;;;;;;0.3;0.3;;;;;;;16.6;100.0;102430;;;;
2022/08/09 04:14:10;;;;;;;0.3;0.3;;;;;;;16.6;100.0;102430;;;;
2022/08/09 04:15:10;;;;;;;0.3;0.3;;;;;;;16.5;100.0;102430;;;;
2022/08/09 04:16:10;;;;;;;0.3;0.3;;;;;;;16.5;100.0;102430;;;;
2022/08/09 04:17:00;;;;;;;0.3;0.3;;;;;;;16.5;100.0;102430;;;;
2022/08/09 04:18:00;;;;;;;0.4;0.4;;;;;;;16.5;100.0;102430;;;;
2022/08/09 04:19:02;;;;;;;0.4;0.4;;;;;;;16.6;100.0;102430;;;;
2022/08/09 04:20:02;;;;;;;0.4;0.4;;;;;;;16.6;100.0;102430;;;;
2022/08/09 04:21:00;;;;;;;0.4;0.4;;;;;;;16.6;100.0;102440;;;;
2022/08/09 04:22:00;;;;;;;0.4;0.4;;;;;;;16.6;100.0;102440;;;;
2022/08/09 04:23:02;;;;;;;0.4;0.4;;;;;;;16.6;100.0;102430;;;;
2022/08/09 04:24:00;;;;;;;0.4;0.4;;;;;;;16.6;100.0;102430;;;;
2022/08/09 04:25:03;;;;;;;0.4;0.4;;;;;;;16.6;100.0;102440;;;;
2022/08/09 04:26:00;;;;;;;0.4;0.4;;;;;;;16.6;100.0;102440;;;;
2022/08/09 04:27:00;;;;;;;0.4;0.4;;;;;;;16.6;100.0;102440;;;;
2022/08/09 04:28:03;;;;;;;0.4;0.4;;;;;;;16.6;100.0;102440;;;;
2022/08/09 04:29:08;;;;;;;0.4;0.4;;;;;;;16.5;100.0;102440;;;;
2022/08/09 04:30:02;;;;;;;0.4;0.4;;;;;;;16.5;100.0;102440;;;;
2022/08/09 04:31:06;;;;;;;0.4;0.4;;;;;;;16.5;100.0;102440;;;;
2022/08/09 04:32:00;;;;;;;0.4;0.4;;;;;;;16.5;100.0;102440;;;;
2022/08/09 04:33:01;;;;;;;0.4;0.4;;;;;;;16.6;100.0;102450;;;;
2022/08/09 04:34:01;;;;;;;0.4;0.4;;;;;;;16.6;100.0;102450;;;;
2022/08/09 04:35:01;;;;;;;0.4;0.4;;;;;;;16.5;100.0;102450;;;;
2022/08/09 04:36:00;;;;;;;0.4;0.4;;;;;;;16.5;100.0;102450;;;;
2022/08/09 04:37:00;;;;;;;0.4;0.4;;;;;;;16.5;100.0;102450;;;;
2022/08/09 04:38:03;;;;;;;1.1;1.0;;;;;;;16.5;100.0;102450;;;;
2022/08/09 04:39:02;;;;;;;1.1;1.0;;;;;;;16.6;100.0;102450;;;;
2022/08/09 04:40:02;;;;;;;1.1;1.0;;;;;;;16.6;100.0;102450;;;;
2022/08/09 04:41:00;;;;;;;1.1;1.0;;;;;;;16.6;100.0;102450;;;;
2022/08/09 04:42:03;;;;;;;1.1;1.0;;;;;;;16.6;100.0;102450;;;;
2022/08/09 04:43:00;;;;;;;1.1;1.0;;;;;;;16.6;100.0;102450;;;;
2022/08/09 04:44:10;;;;;;;1.1;1.0;;;;;;;16.6;100.0;102450;;;;
2022/08/09 04:45:00;;;;;;;1.1;1.0;;;;;;;16.6;100.0;102460;;;;
2022/08/09 04:46:01;;;;;;;1.1;1.0;;;;;;;16.6;100.0;102460;;;;
2022/08/09 04:47:06;;;;;;;1.1;1.0;;;;;;;16.5;100.0;102460;;;;
2022/08/09 04:48:05;;;;;;;1.1;1.0;;;;;;;16.5;100.0;102460;;;;
2022/08/09 04:49:00;;;;;;;1.1;1.0;;;;;;;16.6;100.0;102450;;;;
2022/08/09 04:50:00;;;;;;;1.1;1.0;;;;;;;16.6;100.0;102450;;;;
2022/08/09 04:51:01;;;;;;;1.1;1.0;;;;;;;16.6;100.0;102450;;;;
2022/08/09 04:52:00;;;;;;;1.1;1.0;;;;;;;16.6;100.0;102450;;;;
2022/08/09 04:53:00;;;;;;;1.1;1.0;;;;;;;16.6;100.0;102450;;;;
2022/08/09 04:54:00;;;;;;;1.1;1.0;;;;;;;16.6;100.0;102450;;;;
2022/08/09 04:55:01;;;;;;;1.1;1.0;;;;;;;16.5;100.0;102460;;;;
2022/08/09 04:56:00;;;;;;;1.1;1.0;;;;;;;16.5;100.0;102460;;;;
2022/08/09 04:57:03;;;;;;;1.1;1.0;;;;;;;16.5;100.0;102460;;;;
2022/08/09 04:58:09;;;;;;;0.3;0.3;;;;;;;16.5;100.0;102460;;;;
2022/08/09 04:59:07;;;;;;;0.3;0.3;;;;;;;16.6;100.0;102460;;;;
2022/08/09 05:00:00;;;;;;;0.3;0.3;;;;;;;16.6;100.0;102460;;;;
2022/08/09 05:01:00;;;;;;;0.3;0.3;;;;;;;16.6;100.0;102460;;;;
2022/08/09 05:02:03;;;;;;;0.3;0.3;;;;;;;16.6;100.0;102460;;;;
2022/08/09 05:03:11;;;;;;;0.3;0.3;;;;;;;16.6;100.0;102460;;;;
2022/08/09 05:04:03;;;;;;;0.3;0.3;;;;;;;16.6;100.0;102460;;;;
2022/08/09 05:05:10;;;;;;;0.3;0.3;;;;;;;16.7;100.0;102460;;;;
2022/08/09 05:06:07;;;;;;;0.3;0.3;;;;;;;16.7;100.0;102460;;;;
2022/08/09 05:07:00;;;;;;;0.3;0.3;;;;;;;16.7;100.0;102460;;;;
2022/08/09 05:08:00;;;;;;;0.3;0.3;;;;;;;16.7;100.0;102460;;;;
2022/08/09 05:09:01;;;;;;;0.3;0.3;;;;;;;16.5;100.0;102470;;;;
2022/08/09 05:10:02;;;;;;;0.3;0.3;;;;;;;16.5;100.0;102470;;;;
2022/08/09 05:11:02;;;;;;;0.3;0.3;;;;;;;16.5;100.0;102460;;;;
2022/08/09 05:12:00;;;;;;;0.3;0.3;;;;;;;16.5;100.0;102460;;;;
2022/08/09 05:13:03;;;;;;;0.3;0.3;;;;;;;16.5;100.0;102470;;;;
2022/08/09 05:14:00;;;;;;;0.3;0.3;;;;;;;16.5;100.0;102470;;;;
2022/08/09 05:15:03;;;;;;;0.3;0.3;;;;;;;16.5;100.0;102470;;;;
2022/08/09 05:16:00;;;;;;;0.3;0.3;;;;;;;16.5;100.0;102470;;;;
2022/08/09 05:17:00;;;;;;;0.3;0.3;;;;;;;16.5;100.0;102480;;;;
2022/08/09 05:18:10;;;;;;;0.4;0.4;;;;;;;16.5;100.0;102480;;;;
2022/08/09 05:19:02;;;;;;;0.4;0.4;;;;;;;16.6;100.0;102480;;;;
2022/08/09 05:20:00;;;;;;;0.4;0.4;;;;;;;16.6;100.0;102480;;;;
2022/08/09 05:21:00;;;;;;;0.4;0.4;;;;;;;16.6;100.0;102480;;;;
2022/08/09 05:22:00;;;;;;;0.4;0.4;;;;;;;16.6;100.0;102480;;;;
2022/08/09 05:23:10;;;;;;;0.4;0.4;;;;;;;16.6;100.0;102480;;;;
2022/08/09 05:24:02;;;;;;;0.4;0.4;;;;;;;16.6;100.0;102480;;;;
2022/08/09 05:25:02;;;;;;;0.4;0.4;;;;;;;16.6;100.0;102480;;;;
2022/08/09 05:26:00;;;;;;;0.4;0.4;;;;;;;16.6;100.0;102480;;;;
2022/08/09 05:27:00;;;;;;;0.4;0.4;;;;;;;16.5;100.0;102480;;;;
2022/08/09 05:28:00;;;;;;;0.4;0.4;;;;;;;16.5;100.0;102480;;;;
2022/08/09 05:29:02;;;;;;;0.4;0.4;;;;;;;16.6;100.0;102480;;;;
2022/08/09 05:30:02;;;;;;;0.4;0.4;;;;;;;16.6;100.0;102480;;;;
2022/08/09 05:31:09;;;;;;;0.4;0.4;;;;;;;16.5;100.0;102480;;;;
2022/08/09 05:32:00;;;;;;;0.4;0.4;;;;;;;16.5;100.0;102480;;;;
2022/08/09 05:33:02;;;;;;;0.4;0.4;;;;;;;16.5;100.0;102480;;;;
2022/08/09 05:34:00;;;;;;;0.4;0.4;;;;;;;16.5;100.0;102480;;;;
2022/08/09 05:35:00;;;;;;;0.4;0.4;;;;;;;16.6;100.0;102480;;;;
2022/08/09 05:36:02;;;;;;;0.4;0.4;;;;;;;16.6;100.0;102480;;;;
2022/08/09 05:37:02;;;;;;;0.4;0.4;;;;;;;16.6;100.0;102480;;;;
2022/08/09 05:38:01;;;;;;;0.5;0.5;;;;;;;16.6;100.0;102480;;;;
2022/08/09 05:39:00;;;;;;;0.5;0.5;;;;;;;16.7;100.0;102490;;;;
2022/08/09 05:40:00;;;;;;;0.5;0.5;;;;;;;16.7;100.0;102490;;;;
2022/08/09 05:41:00;;;;;;;0.5;0.5;;;;;;;16.7;100.0;102490;;;;
2022/08/09 05:42:04;;;;;;;0.5;0.5;;;;;;;16.7;100.0;102490;;;;
2022/08/09 05:43:00;;;;;;;0.5;0.5;;;;;;;16.8;100.0;102490;;;;
2022/08/09 05:44:00;;;;;;;0.5;0.5;;;;;;;16.8;100.0;102490;;;;
2022/08/09 05:45:00;;;;;;;0.5;0.5;;;;;;;16.9;100.0;102480;;;;
2022/08/09 05:46:00;;;;;;;0.5;0.5;;;;;;;16.9;100.0;102480;;;;
2022/08/09 05:47:00;;;;;;;0.5;0.5;;;;;;;17.0;100.0;102480;;;;
2022/08/09 05:48:01;;;;;;;0.5;0.5;;;;;;;17.0;100.0;102480;;;;
2022/08/09 05:49:00;;;;;;;0.5;0.5;;;;;;;17.0;100.0;102480;;;;
2022/08/09 05:50:10;;;;;;;0.5;0.5;;;;;;;17.0;100.0;102480;;;;
2022/08/09 05:51:10;;;;;;;0.5;0.5;;;;;;;17.0;100.0;102480;;;;
2022/08/09 05:52:00;;;;;;;0.5;0.5;;;;;;;17.0;100.0;102480;;;;
2022/08/09 05:53:01;;;;;;;0.5;0.5;;;;;;;17.0;100.0;102490;;;;
2022/08/09 05:54:00;;;;;;;0.5;0.5;;;;;;;17.0;100.0;102490;;;;
2022/08/09 05:55:07;;;;;;;0.5;0.5;;;;;;;17.1;100.0;102490;;;;
2022/08/09 05:56:01;;;;;;;0.5;0.5;;;;;;;17.1;100.0;102490;;;;
2022/08/09 05:57:00;;;;;;;0.5;0.5;;;;;;;17.1;100.0;102490;;;;
2022/08/09 05:58:00;;;;;;;0.5;0.5;;;;;;;17.1;100.0;102490;;;;
2022/08/09 05:59:00;;;;;;;0.5;0.5;;;;;;;17.2;100.0;102490;;;;
2022/08/09 06:00:00;;;;;;;0.5;0.5;;;;;;;17.2;100.0;102490;;;;
2022/08/09 06:01:00;;;;;;;0.5;0.5;;;;;;;17.1;100.0;102490;;;;
2022/08/09 06:02:02;;;;;;;0.5;0.5;;;;;;;17.1;100.0;102490;;;;
2022/08/09 06:03:01;;;;;;;0.5;0.5;;;;;;;17.2;100.0;102490;;;;
2022/08/09 06:04:02;;;;;;;0.5;0.5;;;;;;;17.2;100.0;102490;;;;
2022/08/09 06:05:01;;;;;;;0.5;0.5;;;;;;;17.2;100.0;102490;;;;
2022/08/09 06:06:06;;;;;;;0.5;0.5;;;;;;;17.2;100.0;102490;;;;
2022/08/09 06:07:01;;;;;;;0.5;0.5;;;;;;;17.3;100.0;102490;;;;
2022/08/09 06:08:08;;;;;;;0.5;0.5;;;;;;;17.3;100.0;102490;;;;
2022/08/09 06:09:01;;;;;;;0.5;0.5;;;;;;;17.4;100.0;102500;;;;
2022/08/09 06:10:03;;;;;;;0.5;0.5;;;;;;;17.4;100.0;102500;;;;
2022/08/09 06:11:00;;;;;;;0.5;0.5;;;;;;;17.5;100.0;102500;;;;
2022/08/09 06:12:00;;;;;;;0.5;0.5;;;;;;;17.5;100.0;102500;;;;
2022/08/09 06:13:10;;;;;;;0.5;0.5;;;;;;;17.4;100.0;102500;;;;
2022/08/09 06:14:00;;;;;;;0.5;0.5;;;;;;;17.4;100.0;102500;;;;
2022/08/09 06:15:03;;;;;;;0.5;0.5;;;;;;;17.5;100.0;102510;;;;
2022/08/09 06:16:04;;;;;;;0.5;0.5;;;;;;;17.5;100.0;102510;;;;
2022/08/09 06:17:09;;;;;;;0.5;0.5;;;;;;;17.5;100.0;102510;;;;
2022/08/09 06:18:01;;;;;;;0.7;0.5;;;;;;;17.5;100.0;102510;;;;
2022/08/09 06:19:00;;;;;;;0.7;0.5;;;;;;;17.6;100.0;102510;;;;
2022/08/09 06:20:00;;;;;;;0.7;0.5;;;;;;;17.6;100.0;102510;;;;
2022/08/09 06:21:00;;;;;;;0.7;0.5;;;;;;;17.6;100.0;102510;;;;
2022/08/09 06:22:00;;;;;;;0.7;0.5;;;;;;;17.6;100.0;102510;;;;
2022/08/09 06:23:00;;;;;;;0.7;0.5;;;;;;;17.7;100.0;102500;;;;